Hlavní strana
METAR-TAF:

METAR-TAF

Letiště :

Padova, Itálie

zeměpisná šířka: 45-23-45N, zeměpisná délka: 11-50-53E, výška: 13 m

Aktuální stav počasí

Zpráva byla vytvořena před 49 minutami, v 05:53 UTC
Severovýchodní vítr 4 kt
Teplota 23°C
Vlhkost vzduchu 78%
Tlak 1015 hPa
Viditelnost 10 km a více
Žádná oblačnost pod 1500 m, nevyskytují se cumulonimby.

METAR: LIPU 190553Z 04004KT CAVOK 23/19 Q1015

Čas: 08:42 (06:42 UTC)


TAF: chybějící

Stav a předpovědi počasí z více než 4 000 letišť (zprávy METAR a TAF).

Červené a žluté tečky na mapě představují dostupné meteorologické stanice.

Když kurzor umístíte na tečku, zobrazí se název stanice.

Pak kliknutím zobrazíte stav a předpověď počasí.

Chcete-li změnit mapu, kliknutím na zelené tlačítko se znaménkem +mapu přiblížíte, kliknutím na zelené tlačítko se znaménkem – mapu oddálíte a kliknutím na zelené šipky přejdete na sousední mapy.


METAR-TAF: